Airfield :
LOGIN :

Register | Disclaimer

   EN    FR    IT 

 










Legend :    VFR   Marginal VFR   IFR   Intensive IFR   Very Intensive IFR
Visi :
Ceiling :
>= 8 km
>= 3000ft
5 to 8 km
1000 to 3000 ft
1500m to 5 km
500 to 1000 ft
800 to 1500m
200 to 500 ft
< 800m
< 200 ft
Symbols :   Thunderstorms  Fog  Heavy snow  Heavy precipitations  Wind > 20 kt
SIGMETs :     Misc.  Thunderstorms  Icing  Turbulence  Mountain Waves  Volcanic Ashes







- Airport Elevation : 286 ft
- IATA code : FFD


EGVA - RAF Fairford

CURRENT METAR :
  • 230452Z AUTO 25014KT 9999 SCT009 BKN015 BKN021 11/10 A2913 RMK AO2 DZB14E17RAB17E37 CIG 011V015 SLP868 $

EXPIRED METARs :
  • 230442Z AUTO 24013KT 9999 BKN011 OVC019 11/10 A2912 RMK AO2 DZB14E17RAB17E37 SLP864 $
  • 230437Z AUTO 24014KT 9999 BKN009 OVC015 11/10 A2912 RMK AO2 DZB14E17RAB17E37 CIG 009V011 SLP864 $
  • 230419Z AUTO 24011KT 9999 -RA OVC014 11/10 A2911 RMK AO2 DZB14E17RAB17 SLP860 $
  • 230356Z AUTO 23012KT 9999 BKN018 OVC026 12/10 A2910 RMK AO2 SLP857 T01170099 $
  • 230346Z AUTO 22012KT 9999 BKN018 OVC025 12/10 A2909 RMK AO2 CIG 018V027 BKN V SCT SLP854 $
  • 230341Z AUTO 22014KT 9999 SCT018 OVC027 12/10 A2909 RMK AO2 CIG 019V027 CIG 020 RWY09 SLP854 $
  • 230321Z AUTO 23013G18KT 9999 OVC017 12/10 A2908 RMK AO2 CIG 013V019 SLP850 $
  • 230316Z AUTO 23012G18KT 9999 BKN013 OVC019 12/10 A2908 RMK AO2 SLP850 $
  • 230256Z AUTO 23011KT 9999 BKN012 OVC019 12/10 A2908 RMK AO2 SLP850 60005 T01180104 55003 $
  • 230226Z AUTO 23010KT 9999 BKN012 BKN065 12/10 A2908 RMK AO2 CIG 012V065 BKN012 V SCT SLP850 $
  • 230216Z AUTO 22013G20KT 9999 SCT014 BKN065 12/10 A2907 RMK AO2 SLP847 $
  • 230206Z AUTO 22013G21KT 9999 SCT014 11/10 A2907 RMK AO2 SLP847 $

Expired Forecast.
No reported NOTAMs for that airfield.
1 SIGMET reported for the London FIR (EGTT) :
 
Severe turbulence
EGTT SIGMET 01 VALID 230200/230600 EGRR
EGTT LONDON FIR SEV TURB FCST SE OF LINE N5000 W00200 - N5500 E00126 SFC/FL060 MOV E 25KT NC=



MET'MAP, your aeronautical weather chart ! - Copyright ORBIFLY December 2007 - Disclaimer

ORBIFLY MET'MAP TEAM :

Programming & Development : Alexandra Zaïnal
Concept & Development : Baudouin d'Aumeries
Co-Development & Prog : Marc-Olivier Méhu
Technical & hardware support : Manuel Goepfert

Contact : metmap@orbifly.com




SOURCES & CREDITS :

   NOAA